KI19

Sat, Apr 20, 2019 - 22:35 EDT
Clear
TEMP
53°F
FEELS LIKE
50°F
HUMIDITY
77%
DEW POINT
46°F
WIND  
ESE
8
MPH
BAROMETER
30.19 IN

METAR KI19 220235Z AUTO 12007KT 10SM CLR 12/08 A3019 RMK AO2 T01180079

ADDS  |   NWS

MoDaWx  |   KI19  |   KFFO
Free Web Hosting